Time;durP1;ratioP1;P1;durP2;ratioP2;P2;SDS_P1;SDS_P2;PMS_P1;PMS_P2;Temp;Humidity;BMP_temperature;BMP_pressure;BME280_temperature;BME280_humidity;BME280_pressure;Samples;Min_cycle;Max_cycle;Signal;HPM_P1;HPM_P2
2023/12/23 00:02:10;;;;;;;0.83;0.50;;;5.90;99.90;;;;;;5091449;28;20256;-84
2023/12/23 00:04:36;;;;;;;0.23;0.10;;;5.90;99.90;;;;;;5091376;28;20195;-84
2023/12/23 00:07:02;;;;;;;0.70;0.43;;;5.80;99.90;;;;;;5092525;28;20173;-84
2023/12/23 00:09:27;;;;;;;1.20;0.40;;;5.80;99.90;;;;;;5092910;28;20179;-85
2023/12/23 00:11:54;;;;;;;0.37;0.33;;;5.80;99.90;;;;;;5092933;28;20171;-85
2023/12/23 00:14:20;;;;;;;0.63;0.50;;;5.80;99.90;;;;;;5092598;28;20200;-84
2023/12/23 00:16:45;;;;;;;0.60;0.40;;;5.80;99.90;;;;;;5092227;28;20187;-84
2023/12/23 00:19:11;;;;;;;1.37;0.30;;;5.80;99.90;;;;;;5092398;28;20618;-85
2023/12/23 00:21:36;;;;;;;0.43;0.20;;;5.70;99.90;;;;;;5091075;28;20179;-85
2023/12/23 00:24:02;;;;;;;0.40;0.20;;;5.70;99.90;;;;;;5091472;28;20190;-84
2023/12/23 00:26:27;;;;;;;0.50;0.50;;;5.70;99.90;;;;;;5092227;28;20207;-84
2023/12/23 00:28:53;;;;;;;0.37;0.37;;;5.70;99.90;;;;;;5090972;28;20182;-85
2023/12/23 00:31:19;;;;;;;2.47;0.70;;;5.70;99.90;;;;;;5092249;28;20172;-85
2023/12/23 00:33:47;;;;;;;3.13;0.70;;;5.70;99.90;;;;;;5091202;28;20190;-84
2023/12/23 00:36:13;;;;;;;0.43;0.43;;;5.70;99.90;;;;;;5092634;28;20182;-86
2023/12/23 00:38:39;;;;;;;2.23;0.73;;;5.70;99.90;;;;;;5091416;28;20181;-84
2023/12/23 00:41:04;;;;;;;0.43;0.40;;;5.60;99.90;;;;;;5091219;28;20172;-84
2023/12/23 00:43:30;;;;;;;1.57;0.43;;;5.60;99.90;;;;;;5091535;28;20360;-85
2023/12/23 00:45:55;;;;;;;4.20;0.63;;;5.60;99.90;;;;;;5091107;28;20199;-85
2023/12/23 00:48:21;;;;;;;0.57;0.57;;;5.70;99.90;;;;;;5092136;28;20166;-85
2023/12/23 00:50:46;;;;;;;1.97;0.60;;;5.60;99.90;;;;;;5090830;28;20175;-84
2023/12/23 00:53:12;;;;;;;1.03;0.50;;;5.60;99.90;;;;;;5092624;28;20189;-85
2023/12/23 00:55:38;;;;;;;0.50;0.40;;;5.60;99.90;;;;;;5096214;28;20181;-86
2023/12/23 00:58:03;;;;;;;2.93;0.60;;;5.60;99.90;;;;;;5095010;28;20202;-85
2023/12/23 01:00:29;;;;;;;0.80;0.50;;;5.60;99.90;;;;;;5095847;28;20170;-86
2023/12/23 01:02:55;;;;;;;1.30;0.60;;;5.60;99.90;;;;;;5094656;28;20206;-84
2023/12/23 01:05:20;;;;;;;1.10;0.60;;;5.60;99.90;;;;;;5094905;28;20211;-84
2023/12/23 01:07:46;;;;;;;2.73;0.70;;;5.60;99.90;;;;;;5096237;28;20259;-85
2023/12/23 01:10:11;;;;;;;0.70;0.50;;;5.60;99.90;;;;;;5094731;28;20182;-85
2023/12/23 01:12:37;;;;;;;0.90;0.67;;;5.60;99.90;;;;;;5096107;28;20191;-85
2023/12/23 01:15:03;;;;;;;0.93;0.57;;;5.60;99.90;;;;;;5095988;28;20182;-85
2023/12/23 01:17:28;;;;;;;1.10;0.30;;;5.70;99.90;;;;;;5094309;28;20176;-84
2023/12/23 01:19:54;;;;;;;1.20;0.70;;;5.70;99.90;;;;;;5095288;28;20183;-84
2023/12/23 01:22:20;;;;;;;1.77;0.57;;;5.70;99.90;;;;;;5095804;28;20186;-84
2023/12/23 01:24:45;;;;;;;1.80;0.70;;;5.60;99.90;;;;;;5094116;28;20183;-85
2023/12/23 01:27:11;;;;;;;1.37;0.70;;;5.70;99.90;;;;;;5094058;28;20175;-84
2023/12/23 01:29:36;;;;;;;2.40;0.60;;;5.70;99.90;;;;;;5095255;28;20172;-84
2023/12/23 01:32:02;;;;;;;0.83;0.40;;;5.70;99.90;;;;;;5093915;28;20265;-84
2023/12/23 01:34:28;;;;;;;1.50;0.70;;;5.70;99.90;;;;;;5095178;28;20200;-84
2023/12/23 01:36:53;;;;;;;0.53;0.47;;;5.70;99.90;;;;;;5094338;28;20170;-84
2023/12/23 01:39:19;;;;;;;2.80;0.80;;;5.70;99.90;;;;;;5095260;28;20178;-85
2023/12/23 01:41:44;;;;;;;2.23;1.00;;;5.70;99.90;;;;;;5095460;28;20181;-85
2023/12/23 01:44:10;;;;;;;2.50;0.70;;;5.70;99.90;;;;;;5096204;28;20213;-84
2023/12/23 01:46:36;;;;;;;1.93;0.70;;;5.70;83.60;;;;;;5094777;28;20212;-84
2023/12/23 01:49:02;;;;;;;2.30;0.70;;;5.70;62.50;;;;;;5093899;28;20171;-84
2023/12/23 01:51:28;;;;;;;1.93;0.67;;;5.70;98.30;;;;;;5093891;28;20179;-85
2023/12/23 01:54:01;;;;;;;2.67;0.90;;;5.80;73.20;;;;;;5093768;28;20187;-85
2023/12/23 01:56:26;;;;;;;2.77;1.00;;;5.80;99.90;;;;;;5093692;28;20180;-85
2023/12/23 01:58:52;;;;;;;2.47;0.90;;;5.80;20.30;;;;;;5093747;28;20183;-84
2023/12/23 02:01:17;;;;;;;1.27;0.50;;;5.80;1.00;;;;;;5093742;28;20201;-84
2023/12/23 02:03:44;;;;;;;5.57;1.13;;;5.80;30.90;;;;;;5094005;28;20201;-85
2023/12/23 02:06:09;;;;;;;0.87;0.70;;;5.70;1.00;;;;;;5094000;28;20199;-84
2023/12/23 02:08:35;;;;;;;2.13;0.70;;;5.80;1.00;;;;;;5093557;28;20172;-86
2023/12/23 02:11:05;;;;;;;2.67;1.00;;;5.80;1.00;;;;;;5094546;28;20675;-84
2023/12/23 02:13:38;;;;;;;1.33;0.90;;;5.80;1.00;;;;;;5094936;28;20199;-84
2023/12/23 02:16:05;;;;;;;1.33;0.90;;;5.80;1.00;;;;;;5094639;28;20181;-85
2023/12/23 02:18:31;;;;;;;1.63;0.77;;;5.80;1.00;;;;;;5094344;28;20210;-85
2023/12/23 02:20:56;;;;;;;2.07;0.70;;;5.80;1.00;;;;;;5092960;28;20199;-85
2023/12/23 02:23:22;;;;;;;2.07;0.80;;;5.80;1.00;;;;;;5093147;28;20221;-84
2023/12/23 02:25:56;;;;;;;2.30;0.70;;;5.80;1.00;;;;;;5093112;28;20233;-84
2023/12/23 02:28:24;;;;;;;1.63;0.70;;;5.80;1.00;;;;;;5093116;28;20174;-85
2023/12/23 02:30:50;;;;;;;1.37;0.90;;;5.80;1.00;;;;;;5092858;28;20267;-84
2023/12/23 02:33:16;;;;;;;2.27;0.80;;;5.80;1.00;;;;;;5094649;28;20195;-85
2023/12/23 02:35:42;;;;;;;0.97;0.70;;;5.80;1.00;;;;;;5094477;28;20235;-84
2023/12/23 02:38:09;;;;;;;2.60;0.90;;;5.80;1.00;;;;;;5092964;28;20648;-84
2023/12/23 02:40:35;;;;;;;2.13;0.77;;;5.80;1.00;;;;;;5092600;28;20184;-85
2023/12/23 02:43:01;;;;;;;0.97;0.70;;;5.80;1.00;;;;;;5096731;22;20250;-86
2023/12/23 02:45:27;;;;;;;3.30;0.80;;;5.70;1.00;;;;;;5052973;28;20265;-87
2023/12/23 02:47:53;;;;;;;2.27;0.80;;;5.80;1.00;;;;;;5035367;28;20172;-86
2023/12/23 02:50:19;;;;;;;1.57;0.80;;;5.80;1.00;;;;;;5035203;28;20172;-86
2023/12/23 02:52:44;;;;;;;1.10;0.67;;;5.80;1.00;;;;;;5053260;28;20199;-86
2023/12/23 02:55:10;;;;;;;3.20;0.77;;;5.80;1.00;;;;;;5035405;28;20196;-86
2023/12/23 02:57:36;;;;;;;1.10;0.43;;;5.80;1.00;;;;;;5035068;28;20176;-86
2023/12/23 03:00:01;;;;;;;2.77;0.80;;;5.80;99.90;;;;;;5052900;28;20180;-86
2023/12/23 03:02:27;;;;;;;1.77;0.97;;;5.80;99.90;;;;;;5034797;28;20181;-86
2023/12/23 03:04:52;;;;;;;2.73;1.10;;;5.80;99.90;;;;;;5035109;28;20196;-86
2023/12/23 03:07:18;;;;;;;1.03;0.70;;;5.80;99.90;;;;;;5052871;28;20203;-86
2023/12/23 03:09:43;;;;;;;2.17;0.80;;;5.80;1.00;;;;;;5052559;28;20180;-86
2023/12/23 03:12:09;;;;;;;2.10;1.17;;;5.80;99.90;;;;;;5052551;28;20175;-86
2023/12/23 03:14:35;;;;;;;2.17;0.80;;;5.70;99.90;;;;;;5034571;28;20197;-86
2023/12/23 03:17:00;;;;;;;3.53;0.70;;;5.70;99.90;;;;;;5052410;28;20184;-86
2023/12/23 03:19:26;;;;;;;2.23;1.10;;;5.70;1.00;;;;;;5014979;28;20191;-86
2023/12/23 03:21:52;;;;;;;2.60;0.77;;;5.80;99.90;;;;;;5032457;28;20182;-86
2023/12/23 03:24:17;;;;;;;0.87;0.60;;;5.70;1.00;;;;;;5026288;28;20287;-86
2023/12/23 03:26:43;;;;;;;1.43;0.67;;;5.80;99.90;;;;;;5034334;28;20235;-86
2023/12/23 03:29:09;;;;;;;1.53;0.73;;;5.80;1.00;;;;;;5034739;28;20198;-86
2023/12/23 03:31:34;;;;;;;3.93;0.70;;;5.80;1.00;;;;;;5052398;28;20175;-86
2023/12/23 03:34:02;;;;;;;1.67;0.70;;;5.80;99.90;;;;;;5052422;28;20655;-86
2023/12/23 03:36:28;;;;;;;2.97;0.50;;;5.70;99.90;;;;;;5052290;28;20181;-86
2023/12/23 03:38:55;;;;;;;4.07;0.90;;;5.70;99.90;;;;;;5034270;28;20559;-86
2023/12/23 03:41:21;;;;;;;1.17;0.63;;;5.70;1.00;;;;;;5034152;28;20182;-86
2023/12/23 03:43:46;;;;;;;1.50;0.70;;;5.70;1.00;;;;;;5052014;28;20242;-86
2023/12/23 03:46:12;;;;;;;2.00;0.67;;;5.70;1.00;;;;;;5052373;28;20204;-86
2023/12/23 03:48:38;;;;;;;1.53;0.50;;;5.70;99.90;;;;;;5052302;28;20322;-87
2023/12/23 03:51:04;;;;;;;0.93;0.63;;;5.70;99.90;;;;;;5052053;28;20258;-86
2023/12/23 03:53:29;;;;;;;1.17;0.70;;;5.60;99.90;;;;;;5034035;28;20186;-86
2023/12/23 03:55:55;;;;;;;1.33;0.80;;;5.60;1.00;;;;;;5051921;28;20180;-86
2023/12/23 03:58:20;;;;;;;2.73;1.37;;;5.60;1.00;;;;;;5052270;28;20184;-86
2023/12/23 04:00:47;;;;;;;1.37;0.80;;;5.60;1.00;;;;;;5051911;28;20707;-86
2023/12/23 04:03:12;;;;;;;1.90;0.90;;;5.50;1.00;;;;;;5052062;28;20209;-86
2023/12/23 04:05:38;;;;;;;3.17;0.90;;;5.50;1.00;;;;;;5051952;28;20203;-86
2023/12/23 04:08:04;;;;;;;1.10;0.73;;;5.50;1.00;;;;;;5033989;28;20180;-86
2023/12/23 04:10:30;;;;;;;1.67;0.90;;;5.50;35.70;;;;;;5051495;28;20177;-86
2023/12/23 04:12:55;;;;;;;2.23;0.83;;;5.40;99.90;;;;;;5033607;28;20623;-87
2023/12/23 04:15:21;;;;;;;3.67;0.80;;;5.40;99.90;;;;;;5051742;28;20178;-86
2023/12/23 04:17:46;;;;;;;2.00;0.90;;;5.40;99.90;;;;;;5034167;28;20178;-86
2023/12/23 04:20:12;;;;;;;1.73;1.03;;;5.40;99.90;;;;;;5051828;28;20198;-86
2023/12/23 04:22:37;;;;;;;1.20;1.10;;;5.40;99.90;;;;;;5051737;28;20230;-86
2023/12/23 04:25:03;;;;;;;2.17;1.00;;;5.30;99.90;;;;;;5051598;28;20305;-86
2023/12/23 04:27:29;;;;;;;2.53;1.13;;;5.20;99.90;;;;;;5052496;28;20258;-87
2023/12/23 04:29:54;;;;;;;2.67;1.20;;;5.10;99.90;;;;;;5037590;28;20269;-87
2023/12/23 04:32:20;;;;;;;1.77;1.20;;;5.10;99.90;;;;;;5037932;28;20163;-87
2023/12/23 04:34:45;;;;;;;2.70;1.13;;;5.00;99.90;;;;;;5037810;28;20228;-87
2023/12/23 04:37:11;;;;;;;2.97;1.40;;;5.00;99.90;;;;;;5055470;28;20631;-86
2023/12/23 04:39:36;;;;;;;1.57;1.00;;;4.90;99.90;;;;;;5037461;28;20573;-87
2023/12/23 04:42:02;;;;;;;2.70;1.37;;;4.90;99.90;;;;;;5037769;28;20167;-87
2023/12/23 04:44:28;;;;;;;2.50;1.20;;;4.80;99.90;;;;;;5037460;28;20218;-86
2023/12/23 04:46:54;;;;;;;2.07;1.37;;;4.80;99.90;;;;;;5055332;28;20214;-87
2023/12/23 04:49:19;;;;;;;2.40;1.40;;;4.80;99.90;;;;;;5037452;28;20172;-87
2023/12/23 04:51:45;;;;;;;2.63;1.63;;;4.80;99.90;;;;;;5037269;28;20174;-87
2023/12/23 04:54:14;;;;;;;2.53;1.40;;;4.80;99.90;;;;;;5055040;28;20200;-87
2023/12/23 04:56:39;;;;;;;1.90;1.30;;;4.80;99.90;;;;;;5055409;28;20191;-87
2023/12/23 04:59:06;;;;;;;2.00;1.30;;;4.80;99.90;;;;;;5037276;28;20179;-86
2023/12/23 05:01:31;;;;;;;3.43;1.60;;;4.80;99.90;;;;;;5055085;28;20187;-87
2023/12/23 05:03:57;;;;;;;2.93;1.47;;;4.70;99.90;;;;;;5037350;28;20291;-87
2023/12/23 05:06:22;;;;;;;2.60;1.67;;;4.70;99.90;;;;;;5054983;28;20293;-86
2023/12/23 05:08:48;;;;;;;1.93;1.23;;;4.70;99.90;;;;;;5054867;28;20183;-86
2023/12/23 05:11:14;;;;;;;3.37;1.50;;;4.80;99.90;;;;;;5036967;28;20605;-86
2023/12/23 05:13:39;;;;;;;1.87;1.30;;;4.80;99.90;;;;;;5036882;28;20196;-86
2023/12/23 05:16:05;;;;;;;1.83;1.40;;;4.70;99.90;;;;;;5054800;28;20175;-86
2023/12/23 05:18:31;;;;;;;2.73;1.30;;;4.80;99.90;;;;;;5054809;28;20183;-86
2023/12/23 05:20:56;;;;;;;2.17;1.27;;;4.80;99.90;;;;;;5054530;28;20180;-86
2023/12/23 05:23:22;;;;;;;1.57;1.00;;;4.80;99.90;;;;;;5036760;28;20207;-86
2023/12/23 05:25:48;;;;;;;1.20;1.10;;;4.80;99.90;;;;;;5054518;28;20205;-86
2023/12/23 05:28:13;;;;;;;1.10;1.00;;;4.80;99.90;;;;;;5054783;28;20174;-86
2023/12/23 05:30:39;;;;;;;1.50;0.90;;;4.80;99.90;;;;;;5036693;28;20231;-86
2023/12/23 05:33:05;;;;;;;2.03;1.13;;;4.80;99.90;;;;;;5036728;28;20179;-86
2023/12/23 05:35:30;;;;;;;2.40;1.00;;;4.80;99.90;;;;;;5036600;28;20556;-87
2023/12/23 05:37:56;;;;;;;1.43;1.00;;;4.80;99.90;;;;;;5036576;28;20184;-87
2023/12/23 05:40:21;;;;;;;1.80;0.93;;;4.80;99.90;;;;;;5054214;28;20180;-87
2023/12/23 05:42:47;;;;;;;1.40;1.20;;;4.90;99.90;;;;;;5036612;28;20183;-86
2023/12/23 05:45:14;;;;;;;1.80;1.00;;;4.80;99.90;;;;;;5036313;28;20218;-87
2023/12/23 05:47:40;;;;;;;1.07;0.90;;;4.80;99.90;;;;;;5054207;28;20228;-86
2023/12/23 05:50:06;;;;;;;0.90;0.80;;;4.80;99.90;;;;;;5054120;28;20181;-86
2023/12/23 05:52:32;;;;;;;0.57;0.53;;;4.80;99.90;;;;;;5036440;28;20182;-87
2023/12/23 05:54:57;;;;;;;1.60;0.80;;;4.80;99.90;;;;;;5036395;28;20200;-86
2023/12/23 05:57:23;;;;;;;0.60;0.60;;;4.80;99.90;;;;;;5054403;28;20175;-87
2023/12/23 05:59:48;;;;;;;2.00;0.90;;;4.90;99.90;;;;;;5036084;28;20179;-86
2023/12/23 06:02:14;;;;;;;0.70;0.70;;;4.90;99.90;;;;;;5054046;28;20302;-86
2023/12/23 06:04:39;;;;;;;1.00;0.67;;;4.90;99.90;;;;;;5036176;28;20197;-87
2023/12/23 06:07:05;;;;;;;1.27;0.83;;;4.90;99.90;;;;;;5036011;28;20201;-86
2023/12/23 06:09:31;;;;;;;1.53;0.80;;;4.90;99.90;;;;;;5053950;28;20189;-86
2023/12/23 06:11:56;;;;;;;0.83;0.80;;;5.00;99.90;;;;;;5035978;28;20171;-86
2023/12/23 06:14:22;;;;;;;1.27;0.90;;;5.00;99.90;;;;;;5053880;28;20206;-86
2023/12/23 06:16:47;;;;;;;1.00;0.90;;;5.10;99.90;;;;;;5036209;28;20540;-83
2023/12/23 06:19:13;;;;;;;1.00;0.90;;;5.20;99.90;;;;;;5054079;28;20560;-84
2023/12/23 06:21:45;;;;;;;1.30;0.90;;;5.30;99.90;;;;;;5053865;28;20183;-84
2023/12/23 06:24:11;;;;;;;1.60;0.90;;;5.30;99.90;;;;;;5053830;28;20192;-83
2023/12/23 06:26:37;;;;;;;0.90;0.90;;;5.30;99.90;;;;;;5036126;28;20203;-83
2023/12/23 06:29:02;;;;;;;0.80;0.80;;;5.40;99.90;;;;;;5054031;28;20172;-83
2023/12/23 06:31:28;;;;;;;0.80;0.80;;;5.50;99.90;;;;;;5036207;28;20267;-82
2023/12/23 06:33:54;;;;;;;1.93;1.00;;;5.60;99.90;;;;;;5035875;28;20287;-82
2023/12/23 06:36:19;;;;;;;1.00;0.77;;;5.70;99.90;;;;;;5035749;28;20172;-82
2023/12/23 06:38:45;;;;;;;1.37;1.00;;;5.90;99.90;;;;;;5036126;28;20189;-82
2023/12/23 06:41:11;;;;;;;0.80;0.80;;;6.10;99.90;;;;;;5053815;28;20250;-82
2023/12/23 06:43:36;;;;;;;1.10;1.00;;;6.10;99.90;;;;;;5053530;28;20206;-82
2023/12/23 06:46:02;;;;;;;2.50;1.10;;;6.20;99.90;;;;;;5053873;28;20200;-82
2023/12/23 06:48:28;;;;;;;2.57;1.03;;;6.30;99.90;;;;;;5053676;28;20259;-83
2023/12/23 06:50:53;;;;;;;2.27;0.97;;;6.40;99.90;;;;;;5035021;28;20319;-83
2023/12/23 06:53:19;;;;;;;1.23;1.10;;;6.40;99.90;;;;;;5053642;28;20199;-83
2023/12/23 06:55:45;;;;;;;1.70;1.03;;;6.40;99.90;;;;;;5053612;28;20170;-83
2023/12/23 06:58:10;;;;;;;1.37;0.80;;;6.50;99.90;;;;;;5035676;28;20263;-83
2023/12/23 07:00:36;;;;;;;1.63;0.90;;;6.50;99.90;;;;;;5035262;28;20215;-83
2023/12/23 07:03:01;;;;;;;1.17;0.90;;;6.50;99.90;;;;;;5053246;28;20250;-83
2023/12/23 07:05:27;;;;;;;1.03;0.90;;;6.50;99.90;;;;;;5035165;28;20207;-84
2023/12/23 07:07:52;;;;;;;0.60;0.60;;;6.50;99.90;;;;;;5053142;28;20694;-83
2023/12/23 07:10:18;;;;;;;0.90;0.90;;;6.60;99.90;;;;;;5052705;28;20180;-86
2023/12/23 07:12:44;;;;;;;1.40;0.73;;;6.60;99.90;;;;;;5035363;28;20260;-84
2023/12/23 07:15:09;;;;;;;3.40;2.00;;;6.70;99.90;;;;;;5052953;28;20634;-85
2023/12/23 07:17:35;;;;;;;2.60;2.20;;;6.70;99.90;;;;;;5053132;28;20197;-84
2023/12/23 07:20:02;;;;;;;2.30;2.00;;;6.70;99.90;;;;;;5052972;28;20199;-84
2023/12/23 07:22:28;;;;;;;2.13;1.77;;;6.80;99.90;;;;;;5035269;28;20181;-85
2023/12/23 07:24:57;;;;;;;3.83;3.43;;;6.80;99.90;;;;;;5034757;28;20200;-84
2023/12/23 07:27:23;;;;;;;1.50;1.40;;;6.80;99.90;;;;;;5034686;28;20187;-87
2023/12/23 07:29:49;;;;;;;1.47;0.90;;;6.80;99.90;;;;;;5052425;28;20261;-86
2023/12/23 07:32:14;;;;;;;0.67;0.60;;;6.80;99.90;;;;;;5034759;28;20181;-84
2023/12/23 07:34:40;;;;;;;0.77;0.70;;;6.80;99.90;;;;;;5034623;28;20280;-84
2023/12/23 07:37:08;;;;;;;0.70;0.70;;;6.80;99.90;;;;;;5034840;28;20178;-85
2023/12/23 07:39:33;;;;;;;1.53;1.20;;;6.80;99.90;;;;;;5034574;28;20177;-82
2023/12/23 07:42:00;;;;;;;1.03;0.80;;;6.80;99.90;;;;;;5034553;28;20199;-86
2023/12/23 07:44:25;;;;;;;0.60;0.60;;;6.80;99.90;;;;;;5052310;28;20236;-86
2023/12/23 07:46:51;;;;;;;0.80;0.80;;;6.80;99.90;;;;;;5052560;28;20693;-85
2023/12/23 07:49:16;;;;;;;0.63;0.63;;;6.90;99.90;;;;;;5034476;28;20551;-85
2023/12/23 07:51:42;;;;;;;1.03;0.80;;;6.90;99.90;;;;;;5034329;28;20170;-85
2023/12/23 07:54:08;;;;;;;1.03;0.73;;;6.90;99.90;;;;;;5034654;28;20192;-85
2023/12/23 07:56:33;;;;;;;0.70;0.70;;;6.90;99.90;;;;;;5034771;28;20181;-86
2023/12/23 07:58:59;;;;;;;0.50;0.50;;;6.90;99.90;;;;;;5034680;28;20237;-85
2023/12/23 08:01:24;;;;;;;1.03;0.70;;;7.00;99.90;;;;;;5052319;28;20182;-85
2023/12/23 08:03:50;;;;;;;1.50;0.80;;;7.00;99.90;;;;;;5033896;28;20251;-86
2023/12/23 08:06:18;;;;;;;0.80;0.80;;;7.00;99.90;;;;;;5034844;28;20650;-84
2023/12/23 08:08:44;;;;;;;0.83;0.80;;;7.10;99.90;;;;;;5052327;28;20177;-84
2023/12/23 08:11:09;;;;;;;0.80;0.80;;;7.00;99.90;;;;;;5034065;28;20280;-84
2023/12/23 08:13:36;;;;;;;0.60;0.60;;;7.10;99.90;;;;;;5051963;28;20197;-84
2023/12/23 08:16:02;;;;;;;0.73;0.60;;;7.10;99.90;;;;;;5047018;28;20538;-84
2023/12/23 08:18:28;;;;;;;2.70;0.80;;;7.20;99.90;;;;;;5025946;28;20170;-84
2023/12/23 08:20:53;;;;;;;1.30;0.80;;;7.20;99.90;;;;;;5052158;28;20188;-84
2023/12/23 08:23:19;;;;;;;0.67;0.67;;;7.20;99.90;;;;;;5052466;28;20227;-84
2023/12/23 08:25:46;;;;;;;2.50;1.27;;;7.20;99.90;;;;;;5034404;28;20787;-85
2023/12/23 08:28:11;;;;;;;1.30;0.93;;;7.20;99.90;;;;;;5052634;28;20306;-84
2023/12/23 08:30:37;;;;;;;1.40;1.10;;;7.20;99.90;;;;;;5051499;28;20265;-84
2023/12/23 08:33:03;;;;;;;1.40;1.20;;;7.20;99.90;;;;;;5051472;28;20183;-84
2023/12/23 08:35:28;;;;;;;1.93;1.40;;;7.30;99.90;;;;;;5051927;28;20262;-84
2023/12/23 08:37:54;;;;;;;1.50;1.40;;;7.30;99.90;;;;;;5051860;28;20178;-83
2023/12/23 08:40:20;;;;;;;2.03;1.37;;;7.30;99.90;;;;;;5051572;28;20586;-84
2023/12/23 08:42:45;;;;;;;2.10;1.73;;;7.30;99.90;;;;;;5051854;28;20179;-84
2023/12/23 08:45:11;;;;;;;1.27;1.13;;;7.30;99.90;;;;;;5134613;23;20235;-82
2023/12/23 08:47:37;;;;;;;1.47;1.30;;;7.30;99.90;;;;;;5092403;28;20251;-83
2023/12/23 08:50:03;;;;;;;2.53;2.00;;;7.40;99.90;;;;;;5092584;28;20171;-83
2023/12/23 08:52:28;;;;;;;8.30;5.87;;;7.40;99.90;;;;;;5092370;28;20173;-83
2023/12/23 08:54:54;;;;;;;2.03;1.60;;;7.40;99.90;;;;;;5091432;28;20290;-82
2023/12/23 08:57:19;;;;;;;3.20;1.10;;;7.30;99.90;;;;;;5091119;28;20177;-82
2023/12/23 08:59:45;;;;;;;17.33;8.87;;;7.30;99.90;;;;;;5090927;28;20175;-82
2023/12/23 09:02:10;;;;;;;9.20;4.53;;;7.40;99.90;;;;;;5091230;28;20246;-83
2023/12/23 09:04:36;;;;;;;5.83;3.17;;;7.40;99.90;;;;;;5092202;28;20283;-83
2023/12/23 09:07:02;;;;;;;10.33;5.30;;;7.40;99.90;;;;;;5090775;28;20216;-90
2023/12/23 09:09:27;;;;;;;4.00;2.43;;;7.40;99.90;;;;;;5090205;28;20217;-84
2023/12/23 09:11:53;;;;;;;7.33;4.10;;;7.40;99.90;;;;;;5091731;28;20229;-84
2023/12/23 09:14:18;;;;;;;4.00;2.93;;;7.50;99.90;;;;;;5093308;28;20192;-84
2023/12/23 09:16:44;;;;;;;2.70;1.80;;;7.40;99.90;;;;;;5095139;28;20277;-84
2023/12/23 09:19:10;;;;;;;3.33;2.03;;;7.40;99.90;;;;;;5094038;28;20173;-85
2023/12/23 09:21:35;;;;;;;9.60;5.13;;;7.40;99.90;;;;;;5095234;28;20172;-84
2023/12/23 09:24:01;;;;;;;4.20;2.57;;;7.40;99.90;;;;;;5094095;28;20188;-84
2023/12/23 09:26:26;;;;;;;5.83;3.00;;;7.40;99.90;;;;;;5095071;28;20287;-84
2023/12/23 09:28:52;;;;;;;5.03;2.60;;;7.40;99.90;;;;;;5095476;28;20226;-84
2023/12/23 09:31:18;;;;;;;2.53;1.33;;;7.50;99.90;;;;;;5094645;28;20668;-84
2023/12/23 09:33:44;;;;;;;5.07;2.13;;;7.50;99.90;;;;;;5095125;28;20188;-84
2023/12/23 09:36:10;;;;;;;4.53;2.43;;;7.40;99.90;;;;;;5095111;28;20222;-84
2023/12/23 09:38:36;;;;;;;6.72;4.07;;;7.40;99.90;;;;;;5093868;28;20960;-84
2023/12/23 09:41:02;;;;;;;12.77;7.43;;;7.40;99.90;;;;;;5093408;28;20647;-84
2023/12/23 09:43:28;;;;;;;7.60;5.43;;;7.50;99.90;;;;;;5094674;28;20744;-84
2023/12/23 09:45:56;;;;;;;3.43;2.53;;;7.50;99.90;;;;;;5094490;28;20204;-84
2023/12/23 09:48:22;;;;;;;5.87;3.10;;;7.50;99.90;;;;;;5095360;28;20638;-83
2023/12/23 09:50:48;;;;;;;8.97;4.97;;;7.50;99.90;;;;;;5093003;28;20225;-84
2023/12/23 09:53:14;;;;;;;7.97;4.73;;;7.50;99.90;;;;;;5094793;28;20184;-84
2023/12/23 09:55:40;;;;;;;6.50;3.60;;;7.50;99.90;;;;;;5094567;28;20237;-84
2023/12/23 09:58:06;;;;;;;7.90;4.53;;;7.50;99.90;;;;;;5093272;28;20219;-84
2023/12/23 10:00:32;;;;;;;10.97;6.03;;;7.50;99.90;;;;;;5093263;28;20177;-84
2023/12/23 10:02:59;;;;;;;8.17;4.43;;;7.50;99.90;;;;;;5094650;28;20255;-84
2023/12/23 10:05:29;;;;;;;4.03;2.17;;;7.50;99.90;;;;;;5092949;28;20201;-83
2023/12/23 10:07:58;;;;;;;8.53;5.13;;;7.60;99.90;;;;;;5094370;28;20233;-84
2023/12/23 10:10:31;;;;;;;2.57;2.00;;;7.60;99.90;;;;;;5093018;28;20195;-84
2023/12/23 10:12:56;;;;;;;10.50;5.77;;;7.60;99.90;;;;;;5092951;28;20170;-83
2023/12/23 10:15:22;;;;;;;3.23;2.30;;;7.60;99.90;;;;;;5094365;28;20196;-83
2023/12/23 10:17:47;;;;;;;7.57;4.30;;;7.60;99.90;;;;;;5092975;28;20179;-84
2023/12/23 10:20:13;;;;;;;4.83;3.67;;;7.60;99.90;;;;;;5094287;28;20204;-85
2023/12/23 10:22:44;;;;;;;2.67;1.83;;;7.60;99.90;;;;;;5094709;28;20540;-84
2023/12/23 10:25:10;;;;;;;3.57;2.63;;;7.60;99.90;;;;;;5091896;28;20198;-83
2023/12/23 10:27:40;;;;;;;1.53;1.30;;;7.60;99.90;;;;;;5094246;28;20234;-84
2023/12/23 10:30:08;;;;;;;1.97;1.30;;;7.70;99.90;;;;;;5094319;28;20179;-84
2023/12/23 10:32:36;;;;;;;1.63;1.23;;;7.70;99.90;;;;;;5092830;28;20173;-83
2023/12/23 10:35:05;;;;;;;1.50;1.23;;;7.70;99.90;;;;;;5093977;28;20554;-83
2023/12/23 10:37:33;;;;;;;1.70;1.40;;;7.70;99.90;;;;;;5092555;28;20168;-84
2023/12/23 10:40:09;;;;;;;1.80;1.30;;;7.70;99.90;;;;;;5092517;28;20226;-83
2023/12/23 10:42:36;;;;;;;1.60;1.40;;;7.70;99.90;;;;;;5094068;28;20171;-84
2023/12/23 10:45:03;;;;;;;2.10;1.23;;;7.70;99.90;;;;;;5093683;28;20214;-84
2023/12/23 10:47:30;;;;;;;2.23;2.03;;;7.80;99.90;;;;;;5092586;28;20174;-85
2023/12/23 10:49:56;;;;;;;1.70;1.60;;;7.70;99.90;;;;;;5092015;28;20230;-84
2023/12/23 10:52:23;;;;;;;1.57;0.97;;;7.70;99.90;;;;;;5093376;28;20676;-85
2023/12/23 10:54:49;;;;;;;2.00;1.60;;;7.70;99.90;;;;;;5093725;28;20200;-85
2023/12/23 10:57:15;;;;;;;2.73;2.53;;;7.70;99.90;;;;;;5093701;28;20199;-85
2023/12/23 10:59:41;;;;;;;1.40;1.30;;;7.80;99.90;;;;;;5093288;28;20605;-83
2023/12/23 11:02:14;;;;;;;1.50;1.40;;;7.70;99.90;;;;;;5093167;28;20664;-85
2023/12/23 11:04:44;;;;;;;1.73;1.40;;;7.80;99.90;;;;;;5091928;28;20200;-85
2023/12/23 11:07:13;;;;;;;1.77;0.97;;;7.80;99.90;;;;;;5091762;28;20242;-84
2023/12/23 11:09:41;;;;;;;4.43;3.67;;;7.80;99.90;;;;;;5092965;28;20173;-85
2023/12/23 11:12:08;;;;;;;1.40;1.10;;;7.80;99.90;;;;;;5091653;28;20246;-85
2023/12/23 11:14:35;;;;;;;1.00;0.90;;;7.80;99.90;;;;;;5091787;28;20222;-85
2023/12/23 11:17:00;;;;;;;1.60;1.20;;;7.80;99.90;;;;;;5092802;28;20172;-84
2023/12/23 11:19:26;;;;;;;0.43;0.43;;;7.80;99.90;;;;;;5090634;28;20181;-81
2023/12/23 11:22:20;;;;;;;2.07;1.17;;;7.80;99.90;;;;;;5092493;28;20192;-83
2023/12/23 11:24:46;;;;;;;1.33;0.83;;;7.70;99.90;;;;;;5084688;28;20208;-83
2023/12/23 11:27:28;;;;;;;1.37;1.00;;;7.70;99.90;;;;;;5092904;28;20583;-90
2023/12/23 11:29:54;;;;;;;1.43;0.93;;;7.80;99.90;;;;;;5092554;28;20530;-85
2023/12/23 11:32:20;;;;;;;1.43;0.90;;;7.80;99.90;;;;;;5091569;28;20179;-84
2023/12/23 11:34:46;;;;;;;1.00;0.80;;;7.80;99.90;;;;;;5093787;28;20189;-84
2023/12/23 11:37:12;;;;;;;1.70;1.10;;;7.90;99.90;;;;;;5093523;28;20176;-85
2023/12/23 11:39:38;;;;;;;2.03;0.87;;;7.90;99.90;;;;;;5092331;28;20183;-84
2023/12/23 11:42:04;;;;;;;0.80;0.80;;;7.80;99.90;;;;;;5092469;28;20214;-84
2023/12/23 11:44:31;;;;;;;0.97;0.97;;;7.90;99.90;;;;;;5092384;28;20222;-84
2023/12/23 11:46:57;;;;;;;1.43;1.10;;;7.90;99.90;;;;;;5093213;28;20737;-84
2023/12/23 11:49:23;;;;;;;0.80;0.80;;;7.90;99.90;;;;;;5092626;28;20176;-85
2023/12/23 11:51:49;;;;;;;1.33;1.07;;;7.90;99.90;;;;;;5092261;28;20225;-84
2023/12/23 11:54:15;;;;;;;1.40;0.90;;;8.00;99.90;;;;;;5091181;28;20192;-84
2023/12/23 11:56:41;;;;;;;1.43;1.03;;;8.00;99.90;;;;;;5091271;28;20323;-84
2023/12/23 11:59:06;;;;;;;0.93;0.80;;;8.00;99.90;;;;;;5090962;28;20177;-85
2023/12/23 12:01:35;;;;;;;1.23;0.80;;;8.00;99.90;;;;;;5101181;28;20189;-88
2023/12/23 12:04:01;;;;;;;0.80;0.80;;;8.00;99.90;;;;;;5092061;28;20204;-86
2023/12/23 12:06:26;;;;;;;0.90;0.80;;;8.00;99.90;;;;;;5090997;28;20584;-86
2023/12/23 12:08:54;;;;;;;2.40;1.20;;;8.00;99.90;;;;;;5090782;28;20207;-85
2023/12/23 12:11:22;;;;;;;1.10;0.90;;;8.00;99.90;;;;;;5092301;28;20173;-85
2023/12/23 12:13:48;;;;;;;3.20;2.20;;;8.00;99.90;;;;;;5091740;28;20193;-85
2023/12/23 12:16:14;;;;;;;3.37;2.57;;;8.00;99.90;;;;;;5092204;28;20180;-86
2023/12/23 12:18:41;;;;;;;3.70;2.53;;;8.00;99.90;;;;;;5091071;28;20268;-86
2023/12/23 12:21:07;;;;;;;2.17;1.00;;;8.00;99.90;;;;;;5090730;28;20174;-86
2023/12/23 12:23:33;;;;;;;1.30;1.20;;;8.10;99.90;;;;;;5091190;28;20197;-86
2023/12/23 12:25:58;;;;;;;1.40;1.00;;;8.00;99.90;;;;;;5090823;28;20205;-86
2023/12/23 12:28:24;;;;;;;1.10;0.97;;;8.00;99.90;;;;;;5091318;28;20185;-86
2023/12/23 12:30:50;;;;;;;1.17;1.00;;;8.00;99.90;;;;;;5091413;28;20228;-85
2023/12/23 12:33:15;;;;;;;1.23;1.10;;;8.00;99.90;;;;;;5090235;28;20178;-85
2023/12/23 12:35:41;;;;;;;1.53;1.40;;;8.00;99.90;;;;;;5091979;28;20181;-86
2023/12/23 12:38:10;;;;;;;0.67;0.60;;;8.00;99.90;;;;;;5090926;28;20223;-85
2023/12/23 12:40:36;;;;;;;2.03;0.90;;;8.00;99.90;;;;;;5090494;28;20208;-85
2023/12/23 12:43:08;;;;;;;1.40;0.90;;;8.10;99.90;;;;;;5090547;28;20180;-86
2023/12/23 12:45:40;;;;;;;1.20;1.00;;;8.00;99.90;;;;;;5091993;28;20318;-86
2023/12/23 12:48:10;;;;;;;2.10;1.00;;;8.00;99.90;;;;;;5090560;28;20178;-86
2023/12/23 12:50:47;;;;;;;2.20;1.80;;;8.00;99.90;;;;;;5095481;28;20655;-86
2023/12/23 12:53:15;;;;;;;2.43;1.67;;;8.00;99.90;;;;;;5094321;28;20177;-86